Time;durP1;ratioP1;P1;durP2;ratioP2;P2;SDS_P1;SDS_P2;PMS_P1;PMS_P2;Temp;Humidity;BMP_temperature;BMP_pressure;BME280_temperature;BME280_humidity;BME280_pressure;Samples;Min_cycle;Max_cycle;Signal;HPM_P1;HPM_P2
2024/01/25 00:00:21;;;;;;;3.53;0.32;;;;;;;6.13;100.00;97046.78;1035209;28;20687;-71
2024/01/25 00:00:52;;;;;;;0.43;0.22;;;;;;;6.13;100.00;97046.00;1027210;28;20023;-71
2024/01/25 00:01:23;;;;;;;9.23;0.90;;;;;;;6.15;100.00;97046.59;1026890;28;20039;-71
2024/01/25 00:01:54;;;;;;;0.93;0.20;;;;;;;6.16;100.00;97044.81;1023184;28;20162;-71
2024/01/25 00:02:24;;;;;;;0.10;0.10;;;;;;;6.16;100.00;97044.81;1023507;28;20031;-71
2024/01/25 00:02:54;;;;;;;0.17;0.17;;;;;;;6.12;100.00;97033.97;1022932;28;20046;-71
2024/01/25 00:03:25;;;;;;;0.00;0.00;;;;;;;6.18;100.00;97043.59;1019563;28;20503;-71
2024/01/25 00:03:55;;;;;;;5.57;2.17;;;;;;;6.18;100.00;97043.59;1023247;29;20047;-72
2024/01/25 00:04:26;;;;;;;0.45;0.45;;;;;;;6.18;100.00;97041.00;1019413;28;20051;-73
2024/01/25 00:04:56;;;;;;;0.30;0.30;;;;;;;6.17;100.00;97039.41;1023363;28;20038;-72
2024/01/25 00:05:27;;;;;;;0.55;0.55;;;;;;;6.17;100.00;97042.00;1023366;28;20090;-73
2024/01/25 00:05:57;;;;;;;1.65;1.08;;;;;;;6.16;100.00;97034.38;1027360;28;20062;-71
2024/01/25 00:06:28;;;;;;;1.50;1.40;;;;;;;6.14;100.00;97039.81;1031099;28;20034;-72
2024/01/25 00:06:58;;;;;;;0.00;0.00;;;;;;;6.13;100.00;97041.59;1035202;28;20045;-72
2024/01/25 00:07:29;;;;;;;0.00;0.00;;;;;;;6.08;100.00;97032.78;1027209;28;20034;-71
2024/01/25 00:08:00;;;;;;;0.00;0.00;;;;;;;6.22;100.00;97047.41;1022754;29;20039;-72
2024/01/25 00:08:30;;;;;;;1.67;1.42;;;;;;;6.23;100.00;97050.81;1018754;29;20032;-71
2024/01/25 00:09:01;;;;;;;0.00;0.00;;;;;;;6.23;100.00;97051.59;1023489;28;20094;-71
2024/01/25 00:09:31;;;;;;;0.00;0.00;;;;;;;6.25;100.00;97044.38;1023365;28;20019;-72
2024/01/25 00:10:02;;;;;;;4.38;1.20;;;;;;;6.23;100.00;97046.38;1018781;29;20024;-71
2024/01/25 00:10:33;;;;;;;1.58;1.48;;;;;;;6.24;100.00;97047.22;1023314;29;20026;-71
2024/01/25 00:11:03;;;;;;;0.00;0.00;;;;;;;6.20;100.00;97046.78;1019331;29;20032;-71
2024/01/25 00:11:35;;;;;;;0.55;0.55;;;;;;;6.24;100.00;97048.00;1019524;28;20396;-71
2024/01/25 00:12:06;;;;;;;0.10;0.10;;;;;;;6.20;100.00;97044.19;1026950;28;20427;-72
2024/01/25 00:12:36;;;;;;;0.00;0.00;;;;;;;6.21;100.00;97058.84;1019828;28;20034;-71
2024/01/25 00:13:07;;;;;;;0.17;0.17;;;;;;;6.21;100.00;97051.00;1023475;28;20577;-71
2024/01/25 00:13:38;;;;;;;0.35;0.35;;;;;;;6.17;100.00;97055.03;1023232;29;20027;-72
2024/01/25 00:14:09;;;;;;;6.40;0.47;;;;;;;6.18;100.00;97054.03;1019566;28;20035;-72
2024/01/25 00:14:39;;;;;;;0.70;0.55;;;;;;;6.20;100.00;97051.19;1019612;29;20490;-73
2024/01/25 00:15:10;;;;;;;1.48;0.82;;;;;;;6.23;100.00;97046.38;1023030;28;20027;-72
2024/01/25 00:15:41;;;;;;;0.00;0.00;;;;;;;6.26;100.00;97050.41;1019639;28;20028;-70
2024/01/25 00:16:11;;;;;;;0.00;0.00;;;;;;;6.25;100.00;97054.03;1019245;29;20024;-71
2024/01/25 00:16:42;;;;;;;0.00;0.00;;;;;;;6.24;100.00;97055.84;1022876;29;20038;-72
2024/01/25 00:17:12;;;;;;;0.55;0.55;;;;;;;6.23;100.00;97059.41;1023195;29;20035;-71
2024/01/25 00:17:43;;;;;;;0.13;0.13;;;;;;;6.21;100.00;97052.81;1018939;29;20046;-71
2024/01/25 00:18:13;;;;;;;0.00;0.00;;;;;;;6.22;100.00;97057.81;1017996;29;20127;-72
2024/01/25 00:18:43;;;;;;;0.00;0.00;;;;;;;6.24;100.00;97057.63;1018907;29;20048;-73
2024/01/25 00:19:14;;;;;;;0.38;0.38;;;;;;;6.20;100.00;97054.59;1019250;29;20031;-71
2024/01/25 00:19:44;;;;;;;1.65;0.55;;;;;;;6.19;100.00;97049.59;1023433;28;20039;-70
2024/01/25 00:20:15;;;;;;;0.20;0.10;;;;;;;6.24;100.00;97053.22;1026090;28;20039;-71
2024/01/25 00:20:45;;;;;;;0.08;0.08;;;;;;;6.24;100.00;97052.44;1027136;28;20134;-71
2024/01/25 00:21:16;;;;;;;0.20;0.20;;;;;;;6.24;100.00;97055.84;1035532;28;20105;-73
2024/01/25 00:21:46;;;;;;;0.05;0.05;;;;;;;6.26;100.00;97048.59;1026928;28;20039;-71
2024/01/25 00:22:17;;;;;;;0.05;0.05;;;;;;;6.26;100.00;97051.19;1031269;28;20393;-72
2024/01/25 00:22:47;;;;;;;0.43;0.43;;;;;;;6.26;100.00;97050.41;1023375;29;20031;-70
2024/01/25 00:23:17;;;;;;;0.00;0.00;;;;;;;6.27;100.00;97058.03;1019176;28;20031;-72
2024/01/25 00:23:48;;;;;;;0.00;0.00;;;;;;;6.25;100.00;97057.41;1027450;28;20035;-72
2024/01/25 00:24:18;;;;;;;0.30;0.30;;;;;;;6.26;100.00;97056.41;1023240;28;20031;-71
2024/01/25 00:24:49;;;;;;;0.00;0.00;;;;;;;6.29;100.00;97055.22;1018984;29;20411;-71
2024/01/25 00:25:19;;;;;;;0.00;0.00;;;;;;;6.30;100.00;97057.59;1023268;29;20281;-71
2024/01/25 00:25:50;;;;;;;0.05;0.05;;;;;;;6.31;100.00;97051.41;1019182;29;20035;-72
2024/01/25 00:26:20;;;;;;;0.30;0.30;;;;;;;6.30;100.00;97046.38;1019143;29;20401;-75
2024/01/25 00:26:50;;;;;;;0.00;0.00;;;;;;;6.30;100.00;97055.00;1024466;28;20404;-72
2024/01/25 00:27:21;;;;;;;0.70;0.65;;;;;;;6.30;100.00;97048.97;1027161;28;20031;-71
2024/01/25 00:27:52;;;;;;;0.00;0.00;;;;;;;6.32;100.00;97045.19;1023151;28;20039;-70
2024/01/25 00:28:23;;;;;;;0.00;0.00;;;;;;;6.32;100.00;97050.38;1026706;28;20491;-72
2024/01/25 00:28:53;;;;;;;0.00;0.00;;;;;;;6.33;100.00;97045.97;1022413;29;20031;-70
2024/01/25 00:29:24;;;;;;;0.00;0.00;;;;;;;6.34;100.00;97052.81;1019659;28;20031;-73
2024/01/25 00:29:54;;;;;;;1.98;0.52;;;;;;;6.25;100.00;97030.56;1019288;29;20036;-73
2024/01/25 00:30:25;;;;;;;0.00;0.00;;;;;;;6.37;100.00;97057.59;1025482;28;20034;-70
2024/01/25 00:30:55;;;;;;;0.13;0.13;;;;;;;6.35;100.00;97044.78;1023447;28;20035;-71
2024/01/25 00:31:26;;;;;;;0.10;0.10;;;;;;;6.37;100.00;97053.22;1027123;28;20026;-73
2024/01/25 00:31:57;;;;;;;0.00;0.00;;;;;;;6.37;100.00;97045.38;1034837;28;20489;-71
2024/01/25 00:32:28;;;;;;;0.03;0.03;;;;;;;6.35;100.00;97044.78;1027063;28;20060;-72
2024/01/25 00:32:58;;;;;;;0.00;0.00;;;;;;;6.35;100.00;97049.19;1022850;29;20031;-72
2024/01/25 00:33:29;;;;;;;0.00;0.00;;;;;;;6.35;100.00;97043.97;1023479;28;20087;-71
2024/01/25 00:33:59;;;;;;;0.17;0.17;;;;;;;6.36;100.00;97048.19;1035113;28;20034;-70
2024/01/25 00:34:30;;;;;;;0.85;0.85;;;;;;;6.36;100.00;97051.59;1026957;28;20577;-73
2024/01/25 00:35:02;;;;;;;0.00;0.00;;;;;;;6.30;100.00;97041.97;1023014;29;20039;-71
2024/01/25 00:35:33;;;;;;;0.15;0.15;;;;;;;6.33;100.00;97056.41;1022033;29;20501;-71
2024/01/25 00:36:03;;;;;;;0.00;0.00;;;;;;;6.34;100.00;97051.00;1023956;28;20047;-71
2024/01/25 00:36:34;;;;;;;0.00;0.00;;;;;;;6.35;100.00;97050.00;1027364;28;20054;-71
2024/01/25 00:37:05;;;;;;;0.00;0.00;;;;;;;6.35;100.00;97057.81;1027080;28;20030;-72
2024/01/25 00:37:37;;;;;;;0.00;0.00;;;;;;;6.36;100.00;97050.78;1031415;28;20577;-70
2024/01/25 00:38:08;;;;;;;0.45;0.45;;;;;;;6.36;100.00;97050.78;1027386;28;20031;-71
2024/01/25 00:38:38;;;;;;;0.00;0.00;;;;;;;6.35;100.00;97050.00;1030347;28;20022;-72
2024/01/25 00:39:09;;;;;;;0.15;0.15;;;;;;;6.36;100.00;97040.38;1022862;28;20027;-71
2024/01/25 00:39:39;;;;;;;0.00;0.00;;;;;;;6.36;100.00;97048.97;1023554;28;20023;-70
2024/01/25 00:40:13;;;;;;;0.22;0.22;;;;;;;6.38;100.00;97048.78;1026966;28;20035;-73
2024/01/25 00:40:43;;;;;;;3.97;2.38;;;;;;;6.27;100.00;97031.97;1027056;28;20043;-71
2024/01/25 00:41:21;;;;;;;0.10;0.10;;;;;;;6.37;100.00;97037.56;1030321;28;20462;-73
2024/01/25 00:41:52;;;;;;;0.00;0.00;;;;;;;6.37;100.00;97048.00;1023927;28;20079;-70
2024/01/25 00:42:23;;;;;;;0.35;0.35;;;;;;;6.40;100.00;97048.56;1023882;28;20424;-71
2024/01/25 00:42:54;;;;;;;0.80;0.70;;;;;;;6.42;100.00;97038.75;1020455;29;20019;-70
2024/01/25 00:43:25;;;;;;;0.00;0.00;;;;;;;6.41;100.00;97043.16;1022285;29;20034;-71
2024/01/25 00:43:55;;;;;;;3.70;2.13;;;;;;;6.42;100.00;97043.97;1023734;28;20038;-72
2024/01/25 00:44:27;;;;;;;0.00;0.00;;;;;;;6.41;100.00;97042.38;1027987;28;20034;-72
2024/01/25 00:44:58;;;;;;;0.10;0.10;;;;;;;6.42;100.00;97036.16;1037865;28;20026;-72
2024/01/25 00:45:28;;;;;;;0.45;0.45;;;;;;;6.39;100.00;97039.97;1039364;28;20490;-73
2024/01/25 00:45:59;;;;;;;0.47;0.47;;;;;;;6.40;100.00;97043.34;1030764;28;20094;-72
2024/01/25 00:46:30;;;;;;;0.03;0.03;;;;;;;6.35;100.00;97036.16;1030908;28;20038;-71
2024/01/25 00:47:00;;;;;;;2.40;1.65;;;;;;;6.37;100.00;97042.78;1025737;29;20039;-72
2024/01/25 00:47:31;;;;;;;0.65;0.65;;;;;;;6.36;100.00;97040.38;1022541;29;20047;-74
2024/01/25 00:48:02;;;;;;;0.68;0.68;;;;;;;6.34;100.00;97037.97;1018384;29;20024;-73
2024/01/25 00:48:32;;;;;;;0.00;0.00;;;;;;;6.36;100.00;97041.16;1017794;29;20087;-75
2024/01/25 00:49:03;;;;;;;0.20;0.20;;;;;;;6.35;100.00;97038.75;1020556;29;20032;-73
2024/01/25 00:49:34;;;;;;;4.72;0.20;;;;;;;6.34;100.00;97032.75;1016806;29;20290;-74
2024/01/25 00:50:05;;;;;;;0.93;0.93;;;;;;;6.37;100.00;97037.56;1019038;29;20032;-71
2024/01/25 00:50:37;;;;;;;0.28;0.28;;;;;;;6.38;100.00;97033.94;1019040;29;20130;-71
2024/01/25 00:51:08;;;;;;;0.10;0.10;;;;;;;6.38;100.00;97031.34;1019168;29;20050;-70
2024/01/25 00:51:38;;;;;;;0.00;0.00;;;;;;;6.42;100.00;97033.53;1019716;28;20559;-72
2024/01/25 00:52:09;;;;;;;0.00;0.00;;;;;;;6.41;100.00;97037.97;1019422;28;20031;-71
2024/01/25 00:52:40;;;;;;;1.58;1.23;;;;;;;6.42;100.00;97031.72;1023203;28;20035;-71
2024/01/25 00:53:11;;;;;;;0.57;0.32;;;;;;;6.43;100.00;97028.09;1019123;29;20389;-72
2024/01/25 00:53:41;;;;;;;2.17;0.43;;;;;;;6.48;100.00;97032.72;1019161;29;20539;-71
2024/01/25 00:54:12;;;;;;;0.00;0.00;;;;;;;6.47;100.00;97029.31;1023520;28;20146;-72
2024/01/25 00:54:43;;;;;;;0.52;0.52;;;;;;;6.38;100.00;97022.72;1027081;28;20062;-71
2024/01/25 00:55:14;;;;;;;0.10;0.10;;;;;;;6.45;100.00;97026.13;1023319;28;20027;-71
2024/01/25 00:55:45;;;;;;;0.65;0.65;;;;;;;6.43;100.00;97032.53;1026811;28;20466;-71
2024/01/25 00:56:16;;;;;;;0.70;0.70;;;;;;;6.42;100.00;97025.72;1027078;28;20031;-71
2024/01/25 00:56:50;;;;;;;0.55;0.55;;;;;;;6.42;100.00;97034.34;1031643;28;20113;-72
2024/01/25 00:57:21;;;;;;;1.25;0.85;;;;;;;6.37;100.00;97021.94;1034859;28;20410;-71
2024/01/25 00:57:52;;;;;;;1.23;1.17;;;;;;;6.41;100.00;97031.94;1030684;28;20033;-70
2024/01/25 00:58:23;;;;;;;0.30;0.20;;;;;;;6.43;100.00;97035.94;1030923;28;20435;-73
2024/01/25 00:58:53;;;;;;;2.20;1.98;;;;;;;6.41;100.00;97037.16;1028210;28;20093;-71
2024/01/25 00:59:24;;;;;;;0.00;0.00;;;;;;;6.42;100.00;97033.53;1031460;28;20030;-71
2024/01/25 00:59:55;;;;;;;1.30;1.20;;;;;;;6.40;100.00;97032.94;1036254;28;20021;-72
2024/01/25 01:00:26;;;;;;;0.00;0.00;;;;;;;6.43;100.00;97042.97;1035033;28;20034;-72
2024/01/25 01:00:57;;;;;;;3.72;1.27;;;;;;;6.43;100.00;97037.75;1030880;28;20399;-73
2024/01/25 01:01:28;;;;;;;0.77;0.32;;;;;;;6.42;100.00;97034.34;1029002;28;20027;-70
2024/01/25 01:01:59;;;;;;;0.15;0.15;;;;;;;6.40;100.00;97032.94;1030061;28;20034;-72
2024/01/25 01:02:30;;;;;;;0.82;0.75;;;;;;;6.37;100.00;97037.56;1023062;28;20039;-70
2024/01/25 01:03:01;;;;;;;0.00;0.00;;;;;;;6.36;100.00;97032.53;1022983;28;20376;-70
2024/01/25 01:03:32;;;;;;;0.00;0.00;;;;;;;6.42;100.00;97036.16;1023123;29;20030;-71
2024/01/25 01:04:03;;;;;;;9.48;0.73;;;;;;;6.45;100.00;97038.34;1015086;29;20039;-72
2024/01/25 01:04:33;;;;;;;0.00;0.00;;;;;;;6.49;100.00;97042.16;1015198;29;20028;-71
2024/01/25 01:05:04;;;;;;;0.00;0.00;;;;;;;6.47;100.00;97036.31;1019160;28;20046;-71
2024/01/25 01:05:35;;;;;;;0.00;0.00;;;;;;;6.50;100.00;97041.13;1019162;29;20032;-73
2024/01/25 01:06:06;;;;;;;0.32;0.32;;;;;;;6.50;100.00;97046.34;1019333;29;20081;-72
2024/01/25 01:06:37;;;;;;;0.75;0.75;;;;;;;6.51;100.00;97037.53;1021536;29;20031;-73
2024/01/25 01:07:08;;;;;;;0.00;0.00;;;;;;;6.50;100.00;97041.13;1019245;28;20114;-71
2024/01/25 01:07:40;;;;;;;0.00;0.00;;;;;;;6.47;100.00;97037.16;1019664;29;20035;-72
2024/01/25 01:08:11;;;;;;;0.40;0.40;;;;;;;6.48;100.00;97038.75;1019450;29;20114;-72
2024/01/25 01:08:42;;;;;;;4.07;0.22;;;;;;;6.46;100.00;97035.53;1018069;29;20770;-72
2024/01/25 01:09:12;;;;;;;0.47;0.47;;;;;;;6.47;100.00;97033.72;1023165;29;20023;-74
2024/01/25 01:09:43;;;;;;;0.50;0.50;;;;;;;6.48;100.00;97033.53;1022982;28;20027;-71
2024/01/25 01:10:14;;;;;;;0.00;0.00;;;;;;;6.48;100.00;97033.53;1023336;28;20023;-70
2024/01/25 01:10:44;;;;;;;0.65;0.65;;;;;;;6.46;100.00;97019.88;1027133;28;20031;-71
2024/01/25 01:11:15;;;;;;;0.45;0.45;;;;;;;6.48;100.00;97030.13;1035047;28;20022;-74
2024/01/25 01:11:45;;;;;;;0.00;0.00;;;;;;;6.47;100.00;97031.94;1030978;28;20088;-71
2024/01/25 01:12:16;;;;;;;0.65;0.65;;;;;;;6.45;100.00;97023.50;1026774;28;20034;-71
2024/01/25 01:12:47;;;;;;;4.38;1.38;;;;;;;6.50;100.00;97022.88;1022828;28;20515;-73
2024/01/25 01:13:17;;;;;;;0.00;0.00;;;;;;;6.47;100.00;97023.28;1024789;28;20031;-71
2024/01/25 01:13:48;;;;;;;0.00;0.00;;;;;;;6.44;100.00;97027.13;1030820;28;20502;-72
2024/01/25 01:14:18;;;;;;;0.75;0.75;;;;;;;6.49;100.00;97027.31;1031179;28;20475;-71
2024/01/25 01:14:49;;;;;;;0.45;0.35;;;;;;;6.47;100.00;97021.50;1030586;28;20018;-73
2024/01/25 01:15:19;;;;;;;0.32;0.32;;;;;;;6.49;100.00;97023.91;1022950;28;20467;-71
2024/01/25 01:15:50;;;;;;;5.88;0.70;;;;;;;6.52;100.00;97020.88;1027144;28;20114;-72
2024/01/25 01:16:20;;;;;;;0.10;0.10;;;;;;;6.51;100.00;97027.91;1026742;28;20018;-73
2024/01/25 01:16:51;;;;;;;1.70;1.58;;;;;;;6.50;100.00;97026.28;1022755;28;20550;-72
2024/01/25 01:17:21;;;;;;;0.00;0.00;;;;;;;6.47;100.00;97026.72;1031105;28;20026;-72
2024/01/25 01:17:52;;;;;;;6.28;1.38;;;;;;;6.46;100.00;97019.09;1026989;28;20570;-72
2024/01/25 01:18:22;;;;;;;0.00;0.00;;;;;;;6.45;100.00;97022.72;1030903;28;20044;-70
2024/01/25 01:18:53;;;;;;;0.10;0.10;;;;;;;6.44;100.00;97023.69;1030214;28;20014;-72
2024/01/25 01:19:24;;;;;;;0.47;0.47;;;;;;;6.45;100.00;97023.50;1026733;28;20015;-71
2024/01/25 01:19:54;;;;;;;0.45;0.45;;;;;;;6.43;100.00;97027.31;1023322;28;20585;-72
2024/01/25 01:20:24;;;;;;;0.30;0.30;;;;;;;6.47;100.00;97028.50;1022708;29;20502;-71
2024/01/25 01:20:55;;;;;;;0.00;0.00;;;;;;;6.47;100.00;97033.72;1022659;29;20127;-73
2024/01/25 01:21:25;;;;;;;0.90;0.43;;;;;;;6.50;100.00;97020.28;1023090;28;20027;-71
2024/01/25 01:21:56;;;;;;;10.32;0.40;;;;;;;6.49;100.00;97023.91;1022748;28;20034;-72
2024/01/25 01:22:26;;;;;;;0.25;0.25;;;;;;;6.50;100.00;97026.28;1023126;29;20030;-71
2024/01/25 01:22:57;;;;;;;0.70;0.60;;;;;;;6.50;100.00;97021.06;1026833;28;20027;-71
2024/01/25 01:23:27;;;;;;;0.52;0.52;;;;;;;6.48;100.00;97022.31;1018732;28;20035;-71
2024/01/25 01:23:58;;;;;;;0.10;0.10;;;;;;;6.49;100.00;97023.91;1019255;29;20039;-71
2024/01/25 01:24:28;;;;;;;13.77;2.53;;;;;;;6.49;100.00;97029.09;1018900;29;20043;-71
2024/01/25 01:24:58;;;;;;;0.00;0.00;;;;;;;6.47;100.00;97021.50;1018789;28;20030;-71
2024/01/25 01:25:29;;;;;;;0.00;0.00;;;;;;;6.46;100.00;97030.31;1027081;28;20089;-72
2024/01/25 01:25:59;;;;;;;0.95;0.75;;;;;;;6.47;100.00;97025.91;1034962;28;20042;-69
2024/01/25 01:26:30;;;;;;;0.38;0.35;;;;;;;6.47;100.00;97018.91;1038991;28;20104;-70
2024/01/25 01:27:00;;;;;;;0.00;0.00;;;;;;;6.50;100.00;97020.28;1034511;28;20435;-72
2024/01/25 01:27:31;;;;;;;2.53;1.25;;;;;;;6.54;100.00;97026.72;1034891;28;20038;-71
2024/01/25 01:28:01;;;;;;;0.10;0.10;;;;;;;6.54;100.00;97029.31;1034805;28;20084;-72
2024/01/25 01:28:32;;;;;;;0.75;0.65;;;;;;;6.52;100.00;97026.09;1030287;28;20359;-71
2024/01/25 01:29:02;;;;;;;0.00;0.00;;;;;;;6.52;100.00;97026.09;1030732;28;20034;-72
2024/01/25 01:29:32;;;;;;;0.05;0.05;;;;;;;6.53;100.00;97025.88;1026977;28;20026;-71
2024/01/25 01:30:03;;;;;;;1.88;0.80;;;;;;;6.52;100.00;97020.88;1026705;28;20034;-73
2024/01/25 01:30:34;;;;;;;0.00;0.00;;;;;;;6.50;100.00;97021.06;1026703;28;20485;-71
2024/01/25 01:31:04;;;;;;;0.00;0.00;;;;;;;6.49;100.00;97022.09;1027102;28;20081;-71
2024/01/25 01:31:35;;;;;;;0.00;0.00;;;;;;;6.51;100.00;97021.91;1026739;28;20486;-71
2024/01/25 01:32:05;;;;;;;0.73;0.57;;;;;;;6.46;100.00;97013.88;1022923;29;20027;-71
2024/01/25 01:32:36;;;;;;;0.00;0.00;;;;;;;6.41;100.00;97000.66;1023033;29;20100;-71
2024/01/25 01:33:06;;;;;;;0.00;0.00;;;;;;;6.47;100.00;97010.25;1022887;29;20031;-73
2024/01/25 01:33:37;;;;;;;4.30;1.60;;;;;;;6.46;100.00;97011.25;1019828;28;20028;-71
2024/01/25 01:34:07;;;;;;;1.17;0.20;;;;;;;6.49;100.00;97014.25;1026901;28;20479;-73
2024/01/25 01:34:38;;;;;;;4.75;1.92;;;;;;;6.45;100.00;97015.69;1026747;28;20030;-72
2024/01/25 01:35:08;;;;;;;0.93;0.93;;;;;;;6.44;100.00;97018.47;1027069;28;20034;-71
2024/01/25 01:35:39;;;;;;;1.35;1.25;;;;;;;6.44;100.00;97013.25;1030374;28;20502;-71
2024/01/25 01:36:09;;;;;;;0.00;0.00;;;;;;;6.42;100.00;97010.06;1031003;28;20131;-72
2024/01/25 01:36:40;;;;;;;0.55;0.55;;;;;;;6.41;100.00;97008.50;1027746;28;20426;-70
2024/01/25 01:37:10;;;;;;;0.13;0.13;;;;;;;6.42;100.00;97018.69;1026717;28;20024;-70
2024/01/25 01:37:40;;;;;;;0.00;0.00;;;;;;;6.45;100.00;97025.31;1026882;28;20031;-72
2024/01/25 01:38:11;;;;;;;2.40;0.20;;;;;;;6.45;100.00;97017.50;1026772;28;20031;-71
2024/01/25 01:38:41;;;;;;;0.00;0.00;;;;;;;6.44;100.00;97021.91;1026290;28;20046;-71
2024/01/25 01:39:12;;;;;;;19.10;1.02;;;;;;;6.46;100.00;97025.09;1035399;28;20017;-71
2024/01/25 01:39:42;;;;;;;2.05;0.50;;;;;;;6.49;100.00;97016.06;1030765;28;20035;-72
2024/01/25 01:40:13;;;;;;;0.10;0.10;;;;;;;6.50;100.00;97023.69;1030948;28;20109;-70
2024/01/25 01:40:45;;;;;;;0.10;0.10;;;;;;;6.48;100.00;97012.66;1030632;28;20498;-72
2024/01/25 01:41:15;;;;;;;1.80;1.65;;;;;;;6.51;100.00;97016.69;1027090;28;20034;-71
2024/01/25 01:41:49;;;;;;;0.00;0.00;;;;;;;6.54;100.00;97013.66;1030941;28;20038;-70
2024/01/25 01:42:19;;;;;;;0.00;0.00;;;;;;;6.53;100.00;97020.66;1025491;28;20105;-71
2024/01/25 01:42:50;;;;;;;1.65;1.38;;;;;;;6.52;100.00;97016.47;1026678;28;20035;-70
2024/01/25 01:43:20;;;;;;;0.40;0.40;;;;;;;6.50;100.00;97025.50;1027317;28;20050;-73
2024/01/25 01:43:54;;;;;;;0.00;0.00;;;;;;;6.53;100.00;97020.66;1030665;28;20034;-72
2024/01/25 01:44:24;;;;;;;0.30;0.30;;;;;;;6.54;100.00;97016.28;1031505;28;20038;-71
2024/01/25 01:44:55;;;;;;;0.00;0.00;;;;;;;6.46;100.00;97009.44;1034819;28;20060;-71
2024/01/25 01:45:26;;;;;;;1.42;1.33;;;;;;;6.50;100.00;97022.88;1026551;28;20101;-71
2024/01/25 01:46:00;;;;;;;0.00;0.00;;;;;;;6.49;100.00;97014.25;1023152;28;20090;-71
2024/01/25 01:46:37;;;;;;;1.08;0.63;;;;;;;6.48;100.00;97017.09;1022812;29;20022;-70
2024/01/25 01:47:08;;;;;;;18.25;1.27;;;;;;;6.50;100.00;97018.47;1024874;28;20031;-71
2024/01/25 01:47:39;;;;;;;0.00;0.00;;;;;;;6.46;100.00;97014.66;1018807;29;20027;-70
2024/01/25 01:48:09;;;;;;;1.77;0.98;;;;;;;6.46;100.00;97013.88;1014567;29;20116;-70
2024/01/25 01:48:40;;;;;;;0.00;0.00;;;;;;;6.43;100.00;97004.66;1014556;29;20061;-71
2024/01/25 01:49:14;;;;;;;0.55;0.40;;;;;;;6.50;100.00;97012.44;1022633;29;20023;-70
2024/01/25 01:49:44;;;;;;;0.00;0.00;;;;;;;6.49;100.00;97010.84;1023839;28;20114;-71
2024/01/25 01:50:15;;;;;;;0.00;0.00;;;;;;;6.47;100.00;97016.28;1022554;29;20027;-71
2024/01/25 01:50:45;;;;;;;0.00;0.00;;;;;;;6.48;100.00;97012.66;1023057;28;20039;-72
2024/01/25 01:51:16;;;;;;;0.10;0.00;;;;;;;6.47;100.00;97011.06;1022646;28;20034;-71
2024/01/25 01:51:46;;;;;;;0.00;0.00;;;;;;;6.44;100.00;97016.69;1018768;28;20319;-71
2024/01/25 01:52:17;;;;;;;0.08;0.08;;;;;;;6.48;100.00;97014.47;1025723;28;20472;-71
2024/01/25 01:52:48;;;;;;;0.00;0.00;;;;;;;6.44;100.00;97008.88;1026779;28;20604;-72
2024/01/25 01:53:19;;;;;;;0.00;0.00;;;;;;;6.44;100.00;97005.44;1026948;28;20026;-70
2024/01/25 01:53:49;;;;;;;0.00;0.00;;;;;;;6.47;100.00;97012.84;1022851;29;20038;-71
2024/01/25 01:54:19;;;;;;;1.80;1.08;;;;;;;6.47;100.00;97016.28;1018499;29;20032;-70
2024/01/25 01:54:50;;;;;;;0.00;0.00;;;;;;;6.49;100.00;97013.47;1018663;29;20026;-70
2024/01/25 01:55:20;;;;;;;0.10;0.10;;;;;;;6.51;100.00;97014.06;1022822;28;20503;-70
2024/01/25 01:55:51;;;;;;;0.10;0.10;;;;;;;6.53;100.00;97014.66;1028702;28;20264;-72
2024/01/25 01:56:23;;;;;;;0.00;0.00;;;;;;;6.52;100.00;97015.66;1034247;28;20418;-71
2024/01/25 01:56:54;;;;;;;0.60;0.60;;;;;;;6.52;100.00;97002.63;1027220;28;20539;-71
2024/01/25 01:57:24;;;;;;;0.65;0.65;;;;;;;6.51;100.00;97003.66;1022610;29;20054;-71
2024/01/25 01:57:55;;;;;;;0.43;0.20;;;;;;;6.51;100.00;97001.03;1022593;29;20550;-70
2024/01/25 01:58:25;;;;;;;0.10;0.10;;;;;;;6.45;100.00;96997.44;1018659;29;20411;-69
2024/01/25 01:58:57;;;;;;;0.00;0.00;;;;;;;6.49;100.00;96997.81;1026162;28;20026;-71
2024/01/25 01:59:29;;;;;;;0.57;0.55;;;;;;;6.54;100.00;97006.63;1027136;28;20243;-71
2024/01/25 01:59:59;;;;;;;0.35;0.35;;;;;;;6.53;100.00;96999.00;1023096;29;20541;-69
2024/01/25 02:00:30;;;;;;;0.22;0.22;;;;;;;6.50;100.00;97002.03;1022850;29;20118;-73
2024/01/25 02:01:01;;;;;;;0.32;0.32;;;;;;;6.52;100.00;97002.63;1026871;28;20018;-71
2024/01/25 02:01:31;;;;;;;0.90;0.85;;;;;;;6.47;100.00;97002.44;1022526;28;20024;-71
2024/01/25 02:02:02;;;;;;;1.65;1.55;;;;;;;6.50;100.00;96991.59;1015420;29;20075;-73
2024/01/25 02:02:32;;;;;;;0.20;0.20;;;;;;;6.50;100.00;96999.41;1019137;28;20476;-73
2024/01/25 02:03:03;;;;;;;0.00;0.00;;;;;;;6.47;100.00;96986.78;1020244;28;20038;-71
2024/01/25 02:03:33;;;;;;;4.38;0.35;;;;;;;6.49;100.00;96992.59;1027151;28;20027;-72
2024/01/25 02:04:04;;;;;;;0.43;0.20;;;;;;;6.46;100.00;97001.63;1026920;28;20062;-71
2024/01/25 02:04:35;;;;;;;0.10;0.10;;;;;;;6.48;100.00;96999.63;1019118;28;20503;-70
2024/01/25 02:05:06;;;;;;;0.32;0.32;;;;;;;6.37;100.00;96984.59;1027049;28;20026;-71
2024/01/25 02:05:36;;;;;;;0.00;0.00;;;;;;;6.44;100.00;96995.00;1027065;28;20491;-71
2024/01/25 02:06:06;;;;;;;0.75;0.75;;;;;;;6.42;100.00;97002.25;1031217;28;20033;-72
2024/01/25 02:06:37;;;;;;;4.28;0.43;;;;;;;6.42;100.00;97003.06;1034800;28;20022;-71
2024/01/25 02:07:07;;;;;;;0.73;0.73;;;;;;;6.40;100.00;96997.22;1034946;28;20022;-71
2024/01/25 02:07:40;;;;;;;0.73;0.73;;;;;;;6.42;100.00;97003.06;1031148;28;20105;-73
2024/01/25 02:08:10;;;;;;;1.40;0.43;;;;;;;6.42;100.00;97002.25;1023096;28;20026;-71
2024/01/25 02:08:41;;;;;;;0.00;0.00;;;;;;;6.43;100.00;96996.03;1022250;29;20046;-72
2024/01/25 02:09:12;;;;;;;0.10;0.10;;;;;;;6.38;100.00;96997.44;1019034;29;20033;-71
2024/01/25 02:09:42;;;;;;;4.28;1.40;;;;;;;6.45;100.00;96996.63;1027084;28;20573;-72
2024/01/25 02:10:13;;;;;;;0.10;0.10;;;;;;;6.48;100.00;97001.44;1031288;28;20018;-71
2024/01/25 02:10:43;;;;;;;0.98;0.82;;;;;;;6.46;100.00;97001.63;1030994;28;20065;-71
2024/01/25 02:11:13;;;;;;;0.80;0.80;;;;;;;6.43;100.00;97003.84;1034977;28;20457;-72
2024/01/25 02:11:44;;;;;;;1.55;0.88;;;;;;;6.44;100.00;97002.84;1027970;28;20089;-73
2024/01/25 02:12:17;;;;;;;0.30;0.30;;;;;;;6.47;100.00;97007.66;1018984;29;20020;-71
2024/01/25 02:12:48;;;;;;;5.82;1.98;;;;;;;6.45;100.00;97012.28;1019020;29;20040;-71
2024/01/25 02:13:18;;;;;;;0.15;0.15;;;;;;;6.44;100.00;97010.66;1021704;28;20373;-72
2024/01/25 02:13:49;;;;;;;0.32;0.25;;;;;;;6.43;100.00;97009.84;1031354;28;20026;-71
2024/01/25 02:14:19;;;;;;;0.00;0.00;;;;;;;6.47;100.00;97012.84;1035277;28;20022;-71
2024/01/25 02:14:49;;;;;;;0.88;0.10;;;;;;;6.46;100.00;97009.44;1030693;28;20027;-70
2024/01/25 02:15:20;;;;;;;0.00;0.00;;;;;;;6.45;100.00;97012.28;1026791;28;20023;-72
2024/01/25 02:15:50;;;;;;;0.10;0.10;;;;;;;6.45;100.00;97005.25;1027083;28;20023;-71
2024/01/25 02:16:21;;;;;;;0.30;0.30;;;;;;;6.48;100.00;97011.88;1026972;28;20022;-71
2024/01/25 02:16:57;;;;;;;0.10;0.10;;;;;;;6.52;100.00;97010.44;1034036;28;20022;-71
2024/01/25 02:17:28;;;;;;;0.03;0.03;;;;;;;6.50;100.00;97005.44;1031047;28;20025;-71
2024/01/25 02:17:58;;;;;;;0.13;0.13;;;;;;;6.49;100.00;96997.81;1019643;29;20087;-73
2024/01/25 02:18:28;;;;;;;0.30;0.28;;;;;;;6.49;100.00;97008.25;1022492;29;20023;-70
2024/01/25 02:18:59;;;;;;;3.55;1.13;;;;;;;6.48;100.00;97002.25;1018916;29;20020;-71
2024/01/25 02:19:29;;;;;;;1.27;0.32;;;;;;;6.51;100.00;97003.66;1022776;28;20071;-69
2024/01/25 02:20:02;;;;;;;0.00;0.00;;;;;;;6.51;100.00;97006.25;1022912;28;20024;-73
2024/01/25 02:20:33;;;;;;;1.17;1.08;;;;;;;6.49;100.00;97003.03;1020140;28;20028;-71
2024/01/25 02:21:03;;;;;;;0.20;0.20;;;;;;;6.50;100.00;96996.81;1026976;28;20022;-71
2024/01/25 02:21:34;;;;;;;0.10;0.10;;;;;;;6.49;100.00;97008.25;1026596;28;20042;-71
2024/01/25 02:22:05;;;;;;;0.90;0.85;;;;;;;6.48;100.00;97004.84;1026632;28;20035;-71
2024/01/25 02:22:35;;;;;;;0.17;0.17;;;;;;;6.50;100.00;97004.63;1030465;28;20179;-71
2024/01/25 02:23:05;;;;;;;0.32;0.32;;;;;;;6.50;100.00;97009.84;1035115;28;20422;-70
2024/01/25 02:23:36;;;;;;;0.63;0.55;;;;;;;6.50;100.00;97004.63;1032165;28;20141;-71
2024/01/25 02:24:06;;;;;;;2.63;0.90;;;;;;;6.51;100.00;97003.66;1027090;28;20027;-74
2024/01/25 02:24:37;;;;;;;0.20;0.20;;;;;;;6.54;100.00;97008.44;1026931;28;20419;-71
2024/01/25 02:25:07;;;;;;;0.00;0.00;;;;;;;6.56;100.00;97009.03;1027159;28;20482;-74